Terminal Aerodrome Forecast
Issued by NWS

Home | Current Version | Previous Version | Graphics & Text | Print | Product List | Glossary Off
Versions: 1 2 3 4 5 6 7 8 9 10 11 12 13 14 15 16

000
FTUS43 KGRB 031720
TAFATW
TAF
KATW 031720Z 0318/0418 34006KT P6SM BKN020
     FM032200 05005KT P6SM VCSH BKN030
     FM040100 04004KT P6SM SCT040
     FM040600 VRB02KT 3SM BR SCT004 BKN015
      TEMPO 0408/0412 1SM BR BKN004
     FM041500 06005KT P6SM SCT025=

USA.gov is the U.S. government's official web portal to all federal, state and local government web resources and services.